Airfield :
LOGIN :

Register | Disclaimer

   EN    FR    IT 

 










Legend :    VFR   Marginal VFR   IFR   Intensive IFR   Very Intensive IFR
Visi :
Ceiling :
>= 8 km
>= 3000ft
5 to 8 km
1000 to 3000 ft
1500m to 5 km
500 to 1000 ft
800 to 1500m
200 to 500 ft
< 800m
< 200 ft
Symbols :   Thunderstorms  Fog  Heavy snow  Heavy precipitations  Wind > 20 kt
SIGMETs :     Misc.  Thunderstorms  Icing  Turbulence  Mountain Waves  Volcanic Ashes







- Airport Elevation : 913 ft
- Download approach charts


LFSX - Luxeuil

CURRENT METAR :
  • 190130Z AUTO 00000KT 8000 VV/// M05/M05 Q1016

EXPIRED METARs :
  • 190100Z AUTO 00000KT 3500 0450 R11/0500N BCFG VV/// M04/M05 Q1016
  • 190030Z AUTO 11001KT 5000 0350 R11/0450D BCFG VV/// M05/M06 Q1016
  • 190000Z AUTO 11001KT 0800 0450 R11/0800U FZFG VV/// M04/M05 Q1016
  • 182330Z AUTO 07002KT 0800 0600 R11/0800U FZFG VV/// M04/M05 Q1017
  • 182300Z AUTO 00000KT 0650 0400 R11/0650U FZFG VV/// M05/M05 Q1017

TAF TAF LFSX
Valid from the 18 at 15:00 until the 19 at 15:00 UTC


181400Z 1815/1915 VRB03KT 9999 SCT040
TEMPO 1820/1909 3000 BR
PROB40
TEMPO 1820/1908 0300 FZFG
No reported NOTAMs for that airfield.



MET'MAP, your aeronautical weather chart ! - Copyright ORBIFLY December 2007 - Disclaimer

ORBIFLY MET'MAP TEAM :

Programming & Development : Alexandra Zaïnal
Concept & Development : Baudouin d'Aumeries
Co-Development & Prog : Marc-Olivier Méhu
Technical & hardware support : Manuel Goepfert

Contact : metmap@orbifly.com




SOURCES & CREDITS :

   NOAA